createdAt,value
2023-05-03T00:00:30.276Z,5.47
2023-05-03T00:02:57.345Z,10.57
2023-05-03T00:05:26.295Z,8.48
2023-05-03T00:07:53.073Z,15.18
2023-05-03T00:10:20.064Z,12.02
2023-05-03T00:12:46.793Z,6.28
2023-05-03T00:15:13.740Z,8.07
2023-05-03T00:17:40.759Z,9.20
2023-05-03T00:20:08.205Z,12.35
2023-05-03T00:22:35.377Z,13.23
2023-05-03T00:25:02.494Z,6.57
2023-05-03T00:27:29.237Z,14.52
2023-05-03T00:29:56.353Z,15.45
2023-05-03T00:32:23.294Z,9.27
2023-05-03T00:34:57.270Z,13.18
2023-05-03T00:37:25.400Z,11.50
2023-05-03T00:39:53.272Z,16.02
2023-05-03T00:42:20.171Z,21.02
2023-05-03T00:44:47.027Z,8.70
2023-05-03T00:47:15.824Z,11.57
2023-05-03T00:49:42.992Z,10.50
2023-05-03T00:52:10.119Z,8.15
2023-05-03T00:54:37.914Z,8.95
2023-05-03T00:57:05.675Z,15.30
2023-05-03T00:59:34.279Z,6.72
2023-05-03T01:02:01.834Z,8.48
2023-05-03T01:04:29.526Z,11.30
2023-05-03T01:07:18.259Z,13.93
2023-05-03T01:10:04.096Z,9.77
2023-05-03T01:12:45.250Z,8.30
2023-05-03T01:15:21.095Z,9.60
2023-05-03T01:18:20.403Z,14.63
2023-05-03T01:20:49.818Z,11.52
2023-05-03T01:23:22.390Z,7.53
2023-05-03T01:25:53.312Z,10.23
2023-05-03T01:28:20.252Z,6.20
2023-05-03T01:30:50.509Z,16.45
2023-05-03T01:33:21.081Z,11.90
2023-05-03T01:36:13.233Z,21.98
2023-05-03T01:38:40.288Z,15.35
2023-05-03T01:41:11.108Z,13.93
2023-05-03T01:43:40.353Z,8.63
2023-05-03T01:46:07.413Z,9.57
2023-05-03T01:48:34.343Z,10.60
2023-05-03T01:51:01.481Z,9.85
2023-05-03T01:53:28.255Z,19.73
2023-05-03T01:55:55.051Z,11.30
2023-05-03T01:58:21.877Z,12.25
2023-05-03T02:00:49.147Z,14.00
2023-05-03T02:03:16.087Z,12.75
2023-05-03T02:05:43.055Z,7.57
2023-05-03T02:08:09.856Z,7.38
2023-05-03T02:10:36.736Z,14.25
2023-05-03T02:13:03.707Z,9.05
2023-05-03T02:15:31.935Z,9.75
2023-05-03T02:17:58.786Z,9.88
2023-05-03T02:20:25.659Z,10.15
2023-05-03T02:22:52.470Z,22.60
2023-05-03T02:25:19.389Z,12.57
2023-05-03T02:27:46.223Z,11.02
2023-05-03T02:30:13.513Z,14.45
2023-05-03T02:32:40.261Z,18.15
2023-05-03T02:35:07.492Z,11.40
2023-05-03T02:37:34.274Z,14.20
2023-05-03T02:40:01.278Z,16.80
2023-05-03T02:42:28.367Z,17.48
2023-05-03T02:44:55.119Z,21.00
2023-05-03T02:47:21.966Z,25.35
2023-05-03T02:49:48.906Z,12.00
2023-05-03T02:52:15.742Z,23.10
2023-05-03T02:54:42.563Z,15.90
2023-05-03T02:57:09.452Z,19.33
2023-05-03T02:59:36.832Z,21.05
2023-05-03T03:02:03.796Z,10.70
2023-05-03T03:04:30.811Z,15.48
2023-05-03T03:06:57.832Z,12.55
2023-05-03T03:09:24.575Z,17.05
2023-05-03T03:11:52.451Z,14.27
2023-05-03T03:14:19.255Z,16.83
2023-05-03T03:16:46.601Z,12.02
2023-05-03T03:19:13.809Z,17.60
2023-05-03T03:21:40.754Z,20.48
2023-05-03T03:24:07.734Z,17.02
2023-05-03T03:26:34.473Z,20.38
2023-05-03T03:29:01.474Z,17.42
2023-05-03T03:31:28.382Z,22.73
2023-05-03T03:33:55.335Z,12.55
2023-05-03T03:36:22.108Z,15.98
2023-05-03T03:38:48.858Z,24.10
2023-05-03T03:41:15.739Z,16.13
2023-05-03T03:43:42.469Z,25.05
2023-05-03T03:46:09.252Z,16.10
2023-05-03T03:48:36.086Z,13.43
2023-05-03T03:51:02.872Z,21.83
2023-05-03T03:53:29.706Z,15.60
2023-05-03T03:55:56.616Z,17.52
2023-05-03T03:58:23.445Z,19.98
2023-05-03T04:00:51.297Z,17.67
2023-05-03T04:03:18.158Z,15.68
2023-05-03T04:05:45.000Z,20.08
2023-05-03T04:08:11.778Z,19.90
2023-05-03T04:10:38.511Z,17.77
2023-05-03T04:13:05.260Z,27.40
2023-05-03T04:15:32.034Z,19.40
2023-05-03T04:17:58.976Z,20.92
2023-05-03T04:20:25.895Z,20.52
2023-05-03T04:22:52.711Z,30.42
2023-05-03T04:25:19.543Z,20.30
2023-05-03T04:27:47.455Z,27.25
2023-05-03T04:30:15.358Z,28.83
2023-05-03T04:32:42.943Z,22.73
2023-05-03T04:35:12.363Z,22.65
2023-05-03T04:37:40.618Z,18.05
2023-05-03T04:40:09.705Z,19.48
2023-05-03T04:42:36.871Z,20.95
2023-05-03T04:45:06.862Z,20.67
2023-05-03T04:47:34.073Z,28.35
2023-05-03T04:50:02.227Z,34.05
2023-05-03T04:52:29.230Z,23.80
2023-05-03T04:54:56.128Z,35.47
2023-05-03T04:57:22.890Z,19.23
2023-05-03T04:59:50.283Z,19.20
2023-05-03T05:02:17.169Z,30.25
2023-05-03T05:04:43.955Z,27.95
2023-05-03T05:07:11.964Z,36.40
2023-05-03T05:09:38.861Z,25.55
2023-05-03T05:12:05.959Z,29.58
2023-05-03T05:14:33.403Z,26.48
2023-05-03T05:17:00.397Z,29.58
2023-05-03T05:19:27.382Z,25.95
2023-05-03T05:21:54.261Z,22.35
2023-05-03T05:24:21.145Z,28.75
2023-05-03T05:26:48.743Z,24.77
2023-05-03T05:29:15.459Z,33.70
2023-05-03T05:31:42.310Z,22.77
2023-05-03T05:34:09.347Z,35.22
2023-05-03T05:36:36.254Z,27.38
2023-05-03T05:39:03.643Z,31.40
2023-05-03T05:41:30.414Z,33.85
2023-05-03T05:43:58.917Z,29.23
2023-05-03T05:46:25.962Z,33.88
2023-05-03T05:48:52.704Z,30.95
2023-05-03T05:51:20.255Z,26.17
2023-05-03T05:53:47.034Z,21.80
2023-05-03T05:56:14.486Z,29.73
2023-05-03T05:58:41.297Z,29.48
2023-05-03T06:01:08.493Z,32.72
2023-05-03T06:03:35.624Z,23.88
2023-05-03T06:06:02.530Z,30.85
2023-05-03T06:08:29.514Z,23.98
2023-05-03T06:10:56.411Z,29.23
2023-05-03T06:13:23.366Z,23.90
2023-05-03T06:15:50.303Z,26.88
2023-05-03T06:18:17.182Z,32.25
2023-05-03T06:20:44.046Z,29.20
2023-05-03T06:23:10.974Z,18.80
2023-05-03T06:25:37.905Z,19.70
2023-05-03T06:28:04.821Z,20.90
2023-05-03T06:30:31.814Z,13.98
2023-05-03T06:32:58.604Z,16.75
2023-05-03T06:35:25.454Z,13.90
2023-05-03T06:37:52.390Z,12.25
2023-05-03T06:40:19.208Z,22.70
2023-05-03T06:42:46.283Z,14.00
2023-05-03T06:45:13.183Z,10.38
2023-05-03T06:47:42.626Z,14.85
2023-05-03T06:50:10.581Z,12.32
2023-05-03T06:52:37.629Z,11.52
2023-05-03T06:55:04.925Z,14.43
2023-05-03T06:57:31.904Z,12.93
2023-05-03T06:59:59.272Z,14.93
2023-05-03T07:02:26.850Z,10.70
2023-05-03T07:04:54.074Z,13.40
2023-05-03T07:07:21.107Z,11.05
2023-05-03T07:09:48.206Z,12.88
2023-05-03T07:12:16.451Z,16.48
2023-05-03T07:14:43.574Z,21.52
2023-05-03T07:17:10.492Z,18.95
2023-05-03T07:19:38.005Z,19.48
2023-05-03T07:22:05.371Z,17.02
2023-05-03T07:24:32.178Z,24.63
2023-05-03T07:26:59.155Z,15.20
2023-05-03T07:29:27.255Z,10.40
2023-05-03T07:31:54.223Z,13.10
2023-05-03T07:34:21.650Z,18.27
2023-05-03T07:36:48.444Z,18.17
2023-05-03T07:39:15.395Z,14.18
2023-05-03T07:41:42.196Z,18.35
2023-05-03T07:44:09.219Z,13.63
2023-05-03T07:46:36.317Z,22.65
2023-05-03T07:49:04.164Z,10.02
2023-05-03T07:51:35.458Z,12.75
2023-05-03T07:54:02.790Z,9.07
2023-05-03T07:56:29.715Z,8.55
2023-05-03T07:59:07.545Z,7.78
2023-05-03T08:01:36.652Z,10.43
2023-05-03T08:04:04.646Z,13.52
2023-05-03T08:06:32.726Z,11.88
2023-05-03T08:08:59.676Z,9.30
2023-05-03T08:11:29.004Z,5.38
2023-05-03T08:13:56.355Z,7.88
2023-05-03T08:16:23.362Z,10.20
2023-05-03T08:18:50.343Z,7.28
2023-05-03T08:21:17.726Z,11.85
2023-05-03T08:23:45.227Z,12.13
2023-05-03T08:26:14.139Z,6.60
2023-05-03T08:28:41.587Z,13.63
2023-05-03T08:31:08.667Z,20.90
2023-05-03T08:33:35.653Z,14.57
2023-05-03T08:36:03.010Z,10.55
2023-05-03T08:38:29.997Z,9.90
2023-05-03T08:41:00.674Z,10.48
2023-05-03T08:43:29.158Z,9.68
2023-05-03T08:45:56.128Z,6.63
2023-05-03T08:48:23.555Z,14.13
2023-05-03T08:50:52.822Z,9.18
2023-05-03T08:53:19.668Z,9.02
2023-05-03T08:55:46.603Z,6.70
2023-05-03T08:58:13.746Z,3.42
2023-05-03T09:00:45.002Z,7.82
2023-05-03T09:03:12.692Z,3.72
2023-05-03T09:05:41.149Z,9.13
2023-05-03T09:08:13.066Z,5.22
2023-05-03T09:10:41.833Z,7.78
2023-05-03T09:13:09.885Z,6.85
2023-05-03T09:15:37.234Z,7.82
2023-05-03T09:18:08.637Z,5.00
2023-05-03T09:20:36.941Z,5.30
2023-05-03T09:23:03.947Z,5.13
2023-05-03T09:26:05.384Z,7.78
2023-05-03T09:28:41.529Z,17.02
2023-05-03T09:31:08.796Z,6.55
2023-05-03T09:33:36.670Z,2.70
2023-05-03T09:36:05.373Z,4.03
2023-05-03T09:38:34.799Z,4.22
2023-05-03T09:41:01.718Z,6.95
2023-05-03T09:43:28.703Z,6.18
2023-05-03T09:46:14.249Z,5.53
2023-05-03T09:48:42.136Z,5.53
2023-05-03T09:51:11.334Z,4.95
2023-05-03T09:53:39.628Z,5.68
2023-05-03T09:56:10.065Z,4.28
2023-05-03T09:58:37.062Z,7.03
2023-05-03T10:01:03.942Z,4.03
2023-05-03T10:03:41.957Z,4.00
2023-05-03T10:06:31.787Z,3.17
2023-05-03T10:09:05.990Z,3.53
2023-05-03T10:11:36.412Z,5.47
2023-05-03T10:14:05.815Z,8.82
2023-05-03T10:16:40.932Z,3.95
2023-05-03T10:19:15.967Z,7.45
2023-05-03T10:22:04.090Z,4.80
2023-05-03T10:24:31.476Z,8.38
2023-05-03T10:26:58.513Z,7.88
2023-05-03T10:29:37.670Z,3.25
2023-05-03T10:32:28.455Z,3.88
2023-05-03T10:35:05.719Z,6.50
2023-05-03T10:37:34.810Z,7.43
2023-05-03T10:40:10.198Z,4.30
2023-05-03T10:42:56.512Z,9.13
2023-05-03T10:45:28.529Z,5.60
2023-05-03T10:48:10.922Z,7.88
2023-05-03T10:50:39.013Z,6.55
2023-05-03T10:53:06.487Z,4.78
2023-05-03T10:55:33.688Z,10.07
2023-05-03T10:58:01.464Z,8.85
2023-05-03T11:00:38.469Z,6.75
2023-05-03T11:03:39.139Z,8.80
2023-05-03T11:06:06.140Z,7.72
2023-05-03T11:08:37.758Z,6.15
2023-05-03T11:11:09.919Z,5.03
2023-05-03T11:13:37.465Z,3.28
2023-05-03T11:16:06.089Z,5.22
2023-05-03T11:18:33.616Z,5.85
2023-05-03T11:21:00.535Z,5.20
2023-05-03T11:23:30.761Z,5.60
2023-05-03T11:25:58.001Z,11.82
2023-05-03T11:28:25.908Z,4.97
2023-05-03T11:30:53.060Z,5.35
2023-05-03T11:33:20.037Z,8.80
2023-05-03T11:35:46.986Z,10.77
2023-05-03T11:38:13.948Z,9.35
2023-05-03T11:40:41.536Z,9.35
2023-05-03T11:43:08.345Z,3.10
2023-05-03T11:45:48.413Z,8.98
2023-05-03T11:48:16.727Z,13.48
2023-05-03T11:50:45.747Z,3.97
2023-05-03T11:53:17.487Z,6.47
2023-05-03T11:55:48.014Z,6.43
2023-05-03T11:58:16.166Z,5.07
2023-05-03T12:00:51.739Z,6.53
2023-05-03T12:03:21.134Z,10.45
2023-05-03T12:05:49.760Z,9.10
2023-05-03T12:08:20.790Z,7.32
2023-05-03T12:10:51.348Z,3.13
2023-05-03T12:13:38.408Z,11.30
2023-05-03T12:16:14.366Z,14.95
2023-05-03T12:18:51.216Z,2.55
2023-05-03T12:23:55.872Z,7.18
2023-05-03T12:26:23.541Z,12.82
2023-05-03T12:28:50.573Z,9.48
2023-05-03T12:31:18.393Z,3.55
2023-05-03T12:33:58.546Z,3.25
2023-05-03T12:36:37.171Z,7.22
2023-05-03T12:39:09.224Z,10.75
2023-05-03T12:44:10.281Z,4.95
2023-05-03T12:46:39.055Z,5.18
2023-05-03T12:49:08.067Z,6.25
2023-05-03T12:51:35.815Z,6.45
2023-05-03T12:54:10.039Z,4.38
2023-05-03T12:56:40.114Z,9.00
2023-05-03T12:59:39.014Z,9.02
2023-05-03T13:06:59.085Z,4.07
2023-05-03T13:09:37.905Z,7.25
2023-05-03T13:12:14.669Z,11.38
2023-05-03T13:14:42.892Z,10.48
2023-05-03T13:17:10.145Z,12.38
2023-05-03T13:19:37.700Z,9.15
2023-05-03T13:22:04.561Z,10.32
2023-05-03T13:24:31.334Z,7.03
2023-05-03T13:26:58.316Z,5.85
2023-05-03T13:29:25.241Z,5.20
2023-05-03T13:31:52.221Z,7.60
2023-05-03T13:34:19.096Z,8.18
2023-05-03T13:36:45.978Z,5.03
2023-05-03T13:39:12.751Z,6.53
2023-05-03T13:41:43.357Z,10.82
2023-05-03T13:44:10.290Z,3.78
2023-05-03T13:46:38.153Z,10.52
2023-05-03T13:49:05.508Z,8.80
2023-05-03T13:51:32.834Z,9.65
2023-05-03T13:54:00.741Z,8.63
2023-05-03T13:56:28.285Z,9.90
2023-05-03T13:58:58.385Z,10.82
2023-05-03T14:01:26.566Z,15.73
2023-05-03T14:03:54.490Z,9.32
2023-05-03T14:06:23.213Z,6.75
2023-05-03T14:08:50.311Z,10.07
2023-05-03T14:11:18.659Z,7.38
2023-05-03T14:13:56.506Z,4.55
2023-05-03T14:16:39.165Z,12.70
2023-05-03T14:19:07.858Z,12.65
2023-05-03T14:21:34.774Z,4.53
2023-05-03T14:24:01.872Z,9.38
2023-05-03T14:26:29.666Z,13.13
2023-05-03T14:28:56.945Z,5.55
2023-05-03T14:31:23.847Z,4.88
2023-05-03T14:33:50.708Z,9.02
2023-05-03T14:36:17.537Z,11.60
2023-05-03T14:38:44.481Z,6.10
2023-05-03T14:41:11.284Z,7.43
2023-05-03T14:43:38.104Z,11.07
2023-05-03T14:46:04.977Z,6.97
2023-05-03T14:48:31.798Z,6.05
2023-05-03T14:50:58.812Z,9.23
2023-05-03T14:53:25.670Z,4.65
2023-05-03T14:55:53.832Z,8.98
2023-05-03T14:58:20.693Z,13.20
2023-05-03T15:00:47.529Z,9.23
2023-05-03T15:03:14.537Z,5.78
2023-05-03T15:05:45.474Z,8.98
2023-05-03T15:08:15.161Z,8.32
2023-05-03T15:10:44.480Z,11.63
2023-05-03T15:13:12.491Z,6.38
2023-05-03T15:15:41.033Z,6.68
2023-05-03T15:18:08.902Z,3.95
2023-05-03T15:20:36.364Z,8.70
2023-05-03T15:23:06.580Z,5.53
2023-05-03T15:25:33.737Z,5.63
2023-05-03T15:28:04.302Z,8.25
2023-05-03T15:30:32.697Z,6.25
2023-05-03T15:33:01.040Z,7.18
2023-05-03T15:35:27.978Z,5.70
2023-05-03T15:37:54.772Z,8.88
2023-05-03T15:40:24.352Z,5.05
2023-05-03T15:42:52.281Z,6.63
2023-05-03T15:45:24.411Z,5.13
2023-05-03T15:47:51.242Z,13.15
2023-05-03T15:50:18.284Z,3.88
2023-05-03T15:52:46.663Z,3.10
2023-05-03T15:55:13.592Z,5.18
2023-05-03T15:57:41.009Z,7.60
2023-05-03T16:00:12.510Z,9.93
2023-05-03T16:02:40.311Z,7.00
2023-05-03T16:05:07.479Z,7.30
2023-05-03T16:07:34.370Z,6.30
2023-05-03T16:10:01.476Z,6.65
2023-05-03T16:12:28.644Z,9.70
2023-05-03T16:14:55.637Z,11.30
2023-05-03T16:17:22.513Z,5.63
2023-05-03T16:19:49.287Z,9.25
2023-05-03T16:22:16.884Z,5.22
2023-05-03T16:24:43.736Z,12.85
2023-05-03T16:27:10.708Z,4.65
2023-05-03T16:29:38.442Z,12.00
2023-05-03T16:32:09.569Z,7.82
2023-05-03T16:34:37.735Z,10.75
2023-05-03T16:37:04.701Z,3.95
2023-05-03T16:39:32.406Z,8.38
2023-05-03T16:41:59.219Z,15.32
2023-05-03T16:44:26.138Z,13.75
2023-05-03T16:46:53.323Z,7.65
2023-05-03T16:49:20.388Z,10.15
2023-05-03T16:51:47.265Z,8.90
2023-05-03T16:54:16.639Z,12.98
2023-05-03T16:56:44.188Z,14.77
2023-05-03T16:59:10.971Z,9.85
2023-05-03T17:01:37.953Z,11.18
2023-05-03T17:04:06.524Z,10.48
2023-05-03T17:06:33.639Z,11.95
2023-05-03T17:09:01.076Z,15.20
2023-05-03T17:11:28.011Z,8.15
2023-05-03T17:13:55.040Z,7.35
2023-05-03T17:16:23.018Z,14.98
2023-05-03T17:18:50.337Z,15.80
2023-05-03T17:21:19.012Z,18.75
2023-05-03T17:23:46.683Z,9.02
2023-05-03T17:26:14.199Z,10.05
2023-05-03T17:28:41.684Z,11.35
2023-05-03T17:31:08.584Z,9.77
2023-05-03T17:33:35.641Z,11.77
2023-05-03T17:36:04.947Z,6.63
2023-05-03T17:38:33.043Z,14.07
2023-05-03T17:41:07.268Z,12.65
2023-05-03T17:43:35.356Z,11.15
2023-05-03T17:46:10.729Z,9.77
2023-05-03T17:49:01.478Z,19.98
2023-05-03T17:51:31.114Z,15.80
2023-05-03T17:53:57.899Z,7.60
2023-05-03T18:05:09.588Z,14.63
2023-05-03T18:07:36.350Z,10.85
2023-05-03T18:10:04.971Z,18.65
2023-05-03T18:12:32.352Z,17.60
2023-05-03T18:15:01.840Z,10.02
2023-05-03T18:17:29.982Z,14.57
2023-05-03T18:19:56.786Z,14.75
2023-05-03T18:22:23.751Z,11.23
2023-05-03T18:25:01.680Z,9.50
2023-05-03T18:27:28.855Z,4.97
2023-05-03T18:29:56.168Z,8.02
2023-05-03T18:32:24.091Z,12.85
2023-05-03T18:34:51.025Z,7.78
2023-05-03T18:37:37.131Z,7.07
2023-05-03T18:43:24.978Z,15.57
2023-05-03T18:46:11.123Z,14.48
2023-05-03T18:51:27.284Z,14.13
2023-05-03T18:53:56.753Z,7.85
2023-05-03T19:08:22.049Z,16.10
2023-05-03T19:10:59.246Z,11.63
2023-05-03T19:17:36.834Z,21.42
2023-05-03T19:23:05.198Z,18.52
2023-05-03T19:25:42.413Z,18.73
2023-05-03T19:28:26.426Z,17.13
2023-05-03T19:30:53.318Z,19.52
2023-05-03T19:33:21.155Z,21.25
2023-05-03T19:35:48.170Z,19.40
2023-05-03T19:38:14.999Z,16.55
2023-05-03T19:40:58.705Z,17.58
2023-05-03T19:43:26.160Z,18.67
2023-05-03T19:45:53.013Z,23.08
2023-05-03T19:48:19.908Z,19.65
2023-05-03T19:50:47.563Z,16.08
2023-05-03T19:53:14.397Z,21.20
2023-05-03T19:55:41.857Z,14.57
2023-05-03T19:58:08.726Z,12.02
2023-05-03T20:00:35.532Z,21.67
2023-05-03T20:03:02.369Z,19.02
2023-05-03T20:05:29.294Z,25.17
2023-05-03T20:07:56.118Z,17.05
2023-05-03T20:10:22.967Z,15.23
2023-05-03T20:12:49.794Z,18.35
2023-05-03T20:15:16.736Z,12.38
2023-05-03T20:17:43.524Z,21.50
2023-05-03T20:20:12.013Z,27.58
2023-05-03T20:22:38.830Z,19.98
2023-05-03T20:25:06.209Z,18.85
2023-05-03T20:27:32.981Z,14.45
2023-05-03T20:29:59.924Z,11.07
2023-05-03T20:32:27.111Z,24.60
2023-05-03T20:34:53.900Z,16.58
2023-05-03T20:37:20.692Z,14.27
2023-05-03T20:39:47.525Z,8.07
2023-05-03T20:42:14.339Z,12.48
2023-05-03T20:44:41.232Z,14.68
2023-05-03T20:47:07.960Z,15.10
2023-05-03T20:49:34.884Z,18.67
2023-05-03T20:52:01.652Z,17.25
2023-05-03T20:54:28.400Z,11.18
2023-05-03T20:56:55.979Z,22.33
2023-05-03T20:59:22.762Z,17.05
2023-05-03T21:01:49.681Z,14.20
2023-05-03T21:04:16.567Z,29.48
2023-05-03T21:06:45.196Z,23.23
2023-05-03T21:09:12.396Z,27.77
2023-05-03T21:11:39.387Z,13.70
2023-05-03T21:14:06.567Z,10.63
2023-05-03T21:16:33.448Z,15.65
2023-05-03T21:19:01.407Z,9.50
2023-05-03T21:21:28.913Z,11.55
2023-05-03T21:23:56.205Z,12.32
2023-05-03T21:26:23.417Z,12.50
2023-05-03T21:28:50.438Z,9.13
2023-05-03T21:31:17.306Z,8.25
2023-05-03T21:33:44.303Z,12.60
2023-05-03T21:36:12.528Z,12.80
2023-05-03T21:38:40.000Z,14.23
2023-05-03T21:41:07.555Z,9.18
2023-05-03T21:43:37.923Z,20.90
2023-05-03T21:46:08.308Z,17.33
2023-05-03T21:48:36.474Z,18.80
2023-05-03T21:51:04.171Z,22.02
2023-05-03T21:53:31.692Z,10.75
2023-05-03T21:55:58.536Z,19.38
2023-05-03T21:58:26.029Z,14.82
2023-05-03T22:00:52.931Z,15.10
2023-05-03T22:03:19.815Z,16.38
2023-05-03T22:05:48.730Z,14.63
2023-05-03T22:08:18.056Z,20.40
2023-05-03T22:10:45.642Z,18.35
2023-05-03T22:13:12.502Z,12.55
2023-05-03T22:15:39.791Z,11.82
2023-05-03T22:18:06.711Z,9.88
2023-05-03T22:20:33.609Z,18.00
2023-05-03T22:23:00.389Z,9.82
2023-05-03T22:25:30.097Z,10.77
2023-05-03T22:27:58.358Z,12.38
2023-05-03T22:30:25.095Z,13.13
2023-05-03T22:32:51.992Z,18.80
2023-05-03T22:35:18.999Z,13.95
2023-05-03T22:37:45.850Z,13.75
2023-05-03T22:40:12.821Z,13.93
2023-05-03T22:42:39.653Z,11.30
2023-05-03T22:45:07.041Z,20.25
2023-05-03T22:47:33.947Z,16.42
2023-05-03T22:50:00.957Z,12.30
2023-05-03T22:52:27.764Z,24.92
2023-05-03T22:54:57.589Z,21.38
2023-05-03T22:57:24.424Z,14.27
2023-05-03T22:59:51.230Z,13.32
2023-05-03T23:02:17.985Z,13.55
2023-05-03T23:04:44.865Z,9.48
2023-05-03T23:07:11.632Z,10.40
2023-05-03T23:09:38.596Z,14.20
2023-05-03T23:12:05.706Z,22.10
2023-05-03T23:14:32.665Z,11.57
2023-05-03T23:16:59.488Z,11.38
2023-05-03T23:19:26.475Z,14.48
2023-05-03T23:21:53.266Z,10.07
2023-05-03T23:24:20.164Z,12.35
2023-05-03T23:26:46.956Z,13.55
2023-05-03T23:29:14.116Z,11.25
2023-05-03T23:31:41.441Z,11.50
2023-05-03T23:34:08.494Z,8.05
2023-05-03T23:36:35.429Z,14.18
2023-05-03T23:39:02.843Z,18.15
2023-05-03T23:41:29.692Z,15.70
2023-05-03T23:43:56.408Z,17.92
2023-05-03T23:46:23.265Z,13.35
2023-05-03T23:48:50.263Z,8.50
2023-05-03T23:51:17.088Z,12.40
2023-05-03T23:53:43.917Z,11.13
2023-05-03T23:56:10.741Z,8.27
2023-05-03T23:58:37.567Z,14.77
